sensor_id;sensor_type;location;lat;lon;timestamp;pressure;altitude;pressure_sealevel;temperature;humidity
43878;BME280;29815;48.184;11.268;2023-03-03T00:02:02;95633.88;;;-1.03;100.00
43878;BME280;29815;48.184;11.268;2023-03-03T00:04:32;95635.28;;;-1.07;100.00
43878;BME280;29815;48.184;11.268;2023-03-03T00:07:04;95636.28;;;-1.08;100.00
43878;BME280;29815;48.184;11.268;2023-03-03T00:09:33;95634.88;;;-1.11;100.00
43878;BME280;29815;48.184;11.268;2023-03-03T00:12:22;95634.06;;;-1.11;100.00
43878;BME280;29815;48.184;11.268;2023-03-03T00:14:52;95632.44;;;-1.12;100.00
43878;BME280;29815;48.184;11.268;2023-03-03T00:17:24;95629.75;;;-1.19;100.00
43878;BME280;29815;48.184;11.268;2023-03-03T00:19:55;95632.16;;;-1.24;100.00
43878;BME280;29815;48.184;11.268;2023-03-03T00:22:30;95623.22;;;-1.23;100.00
43878;BME280;29815;48.184;11.268;2023-03-03T00:25:27;95630.72;;;-1.26;100.00
43878;BME280;29815;48.184;11.268;2023-03-03T00:28:01;95621.38;;;-1.29;100.00
43878;BME280;29815;48.184;11.268;2023-03-03T00:30:38;95622.13;;;-1.35;100.00
43878;BME280;29815;48.184;11.268;2023-03-03T00:33:18;95632.28;;;-1.39;100.00
43878;BME280;29815;48.184;11.268;2023-03-03T00:35:55;95629.66;;;-1.39;100.00
43878;BME280;29815;48.184;11.268;2023-03-03T00:38:27;95634.94;;;-1.39;100.00
43878;BME280;29815;48.184;11.268;2023-03-03T00:40:56;95630.84;;;-1.41;100.00
43878;BME280;29815;48.184;11.268;2023-03-03T00:43:34;95630.84;;;-1.41;100.00
43878;BME280;29815;48.184;11.268;2023-03-03T00:46:04;95638.97;;;-1.43;100.00
43878;BME280;29815;48.184;11.268;2023-03-03T00:48:41;95638.34;;;-1.45;100.00
43878;BME280;29815;48.184;11.268;2023-03-03T00:51:26;95640.53;;;-1.48;100.00
43878;BME280;29815;48.184;11.268;2023-03-03T00:53:58;95638.28;;;-1.51;100.00
43878;BME280;29815;48.184;11.268;2023-03-03T00:56:28;95638.47;;;-1.53;100.00
43878;BME280;29815;48.184;11.268;2023-03-03T00:58:57;95659.22;;;-1.50;100.00
43878;BME280;29815;48.184;11.268;2023-03-03T01:01:29;95642.75;;;-1.52;100.00
43878;BME280;29815;48.184;11.268;2023-03-03T01:03:59;95650.84;;;-1.53;100.00
43878;BME280;29815;48.184;11.268;2023-03-03T01:06:28;95642.75;;;-1.52;100.00
43878;BME280;29815;48.184;11.268;2023-03-03T01:09:01;95637.84;;;-1.55;100.00
43878;BME280;29815;48.184;11.268;2023-03-03T01:11:30;95646.34;;;-1.59;100.00
43878;BME280;29815;48.184;11.268;2023-03-03T01:14:00;95641.88;;;-1.59;100.00
43878;BME280;29815;48.184;11.268;2023-03-03T01:16:29;95636.66;;;-1.52;100.00
43878;BME280;29815;48.184;11.268;2023-03-03T01:18:59;95633.19;;;-1.53;100.00
43878;BME280;29815;48.184;11.268;2023-03-03T01:21:29;95629.75;;;-1.53;100.00
43878;BME280;29815;48.184;11.268;2023-03-03T01:23:58;95626.88;;;-1.58;100.00
43878;BME280;29815;48.184;11.268;2023-03-03T01:26:29;95629.88;;;-1.61;100.00
43878;BME280;29815;48.184;11.268;2023-03-03T01:28:59;95635.75;;;-1.66;100.00
43878;BME280;29815;48.184;11.268;2023-03-03T01:31:28;95624.78;;;-1.63;100.00
43878;BME280;29815;48.184;11.268;2023-03-03T01:33:58;95630.69;;;-1.61;100.00
43878;BME280;29815;48.184;11.268;2023-03-03T01:36:28;95629.50;;;-1.58;100.00
43878;BME280;29815;48.184;11.268;2023-03-03T01:38:58;95628.13;;;-1.54;100.00
43878;BME280;29815;48.184;11.268;2023-03-03T01:41:31;95638.53;;;-1.46;100.00
43878;BME280;29815;48.184;11.268;2023-03-03T01:44:00;95628.41;;;-1.43;100.00
43878;BME280;29815;48.184;11.268;2023-03-03T01:46:39;95629.03;;;-1.41;100.00
43878;BME280;29815;48.184;11.268;2023-03-03T01:49:24;95628.22;;;-1.41;100.00
43878;BME280;29815;48.184;11.268;2023-03-03T01:51:58;95619.69;;;-1.37;100.00
43878;BME280;29815;48.184;11.268;2023-03-03T01:54:35;95620.97;;;-1.26;100.00
43878;BME280;29815;48.184;11.268;2023-03-03T01:57:14;95617.41;;;-1.12;100.00
43878;BME280;29815;48.184;11.268;2023-03-03T01:59:48;95609.31;;;-1.04;100.00
43878;BME280;29815;48.184;11.268;2023-03-03T02:02:19;95620.50;;;-1.02;100.00
43878;BME280;29815;48.184;11.268;2023-03-03T02:04:50;95614.59;;;-1.04;100.00
43878;BME280;29815;48.184;11.268;2023-03-03T02:07:21;95610.19;;;-0.90;100.00
43878;BME280;29815;48.184;11.268;2023-03-03T02:09:57;95609.59;;;-0.85;100.00
43878;BME280;29815;48.184;11.268;2023-03-03T02:12:33;95601.06;;;-0.87;100.00
43878;BME280;29815;48.184;11.268;2023-03-03T02:15:17;95601.44;;;-0.90;100.00
43878;BME280;29815;48.184;11.268;2023-03-03T02:17:54;95604.28;;;-0.92;100.00
43878;BME280;29815;48.184;11.268;2023-03-03T02:20:31;95604.28;;;-0.92;100.00
43878;BME280;29815;48.184;11.268;2023-03-03T02:23:12;95610.19;;;-0.90;100.00
43878;BME280;29815;48.184;11.268;2023-03-03T02:26:06;95605.28;;;-0.93;100.00
43878;BME280;29815;48.184;11.268;2023-03-03T02:28:39;95612.78;;;-0.96;100.00
43878;BME280;29815;48.184;11.268;2023-03-03T02:31:13;95614.19;;;-1.00;100.00
43878;BME280;29815;48.184;11.268;2023-03-03T02:33:47;95610.13;;;-1.03;100.00
43878;BME280;29815;48.184;11.268;2023-03-03T02:36:21;95606.03;;;-1.06;100.00
43878;BME280;29815;48.184;11.268;2023-03-03T02:38:59;95606.22;;;-1.14;100.00
43878;BME280;29815;48.184;11.268;2023-03-03T02:41:37;95603.34;;;-1.19;100.00
43878;BME280;29815;48.184;11.268;2023-03-03T02:44:10;95602.72;;;-1.21;100.00
43878;BME280;29815;48.184;11.268;2023-03-03T02:46:44;95604.94;;;-1.24;100.00
43878;BME280;29815;48.184;11.268;2023-03-03T02:49:18;95605.31;;;-1.27;100.00
43878;BME280;29815;48.184;11.268;2023-03-03T02:51:48;95606.72;;;-1.31;100.00
43878;BME280;29815;48.184;11.268;2023-03-03T02:54:21;95606.91;;;-1.33;100.00
43878;BME280;29815;48.184;11.268;2023-03-03T02:56:53;95613.81;;;-1.32;100.00
43878;BME280;29815;48.184;11.268;2023-03-03T02:59:22;95611.38;;;-1.33;100.00
43878;BME280;29815;48.184;11.268;2023-03-03T03:01:52;95606.47;;;-1.37;100.00
43878;BME280;29815;48.184;11.268;2023-03-03T03:04:25;95604.06;;;-1.38;100.00
43878;BME280;29815;48.184;11.268;2023-03-03T03:06:55;95596.97;;;-1.31;100.00
43878;BME280;29815;48.184;11.268;2023-03-03T03:09:27;95599.81;;;-1.32;100.00
43878;BME280;29815;48.184;11.268;2023-03-03T03:11:58;95609.94;;;-1.36;100.00
43878;BME280;29815;48.184;11.268;2023-03-03T03:14:31;95607.09;;;-1.41;100.00
43878;BME280;29815;48.184;11.268;2023-03-03T03:17:01;95613.97;;;-1.47;100.00
43878;BME280;29815;48.184;11.268;2023-03-03T03:19:31;95614.72;;;-1.53;100.00
43878;BME280;29815;48.184;11.268;2023-03-03T03:22:02;95619.75;;;-1.58;100.00
43878;BME280;29815;48.184;11.268;2023-03-03T03:24:35;95617.69;;;-1.62;100.00
43878;BME280;29815;48.184;11.268;2023-03-03T03:27:09;95615.03;;;-1.69;100.00
43878;BME280;29815;48.184;11.268;2023-03-03T03:29:39;95621.50;;;-1.72;100.00
43878;BME280;29815;48.184;11.268;2023-03-03T03:32:09;95621.56;;;-1.65;100.00
43878;BME280;29815;48.184;11.268;2023-03-03T03:34:40;95619.75;;;-1.64;100.00
43878;BME280;29815;48.184;11.268;2023-03-03T03:37:11;95620.34;;;-1.62;100.00
43878;BME280;29815;48.184;11.268;2023-03-03T03:39:42;95615.09;;;-1.56;100.00
43878;BME280;29815;48.184;11.268;2023-03-03T03:42:13;95619.03;;;-1.45;100.00
43878;BME280;29815;48.184;11.268;2023-03-03T03:44:43;95622.31;;;-1.37;100.00
43878;BME280;29815;48.184;11.268;2023-03-03T03:47:14;95623.00;;;-1.28;100.00
43878;BME280;29815;48.184;11.268;2023-03-03T03:49:44;95611.84;;;-1.23;100.00
43878;BME280;29815;48.184;11.268;2023-03-03T03:52:14;95612.53;;;-1.15;100.00
43878;BME280;29815;48.184;11.268;2023-03-03T03:54:43;95613.53;;;-1.09;100.00
43878;BME280;29815;48.184;11.268;2023-03-03T03:57:14;95609.97;;;-0.95;100.00
43878;BME280;29815;48.184;11.268;2023-03-03T03:59:44;95623.44;;;-0.83;100.00
43878;BME280;29815;48.184;11.268;2023-03-03T04:02:14;95619.16;;;-0.78;100.00
43878;BME280;29815;48.184;11.268;2023-03-03T04:04:44;95621.22;;;-0.73;100.00
43878;BME280;29815;48.184;11.268;2023-03-03T04:07:14;95617.00;;;-0.61;100.00
43878;BME280;29815;48.184;11.268;2023-03-03T04:09:44;95616.22;;;-0.55;100.00
43878;BME280;29815;48.184;11.268;2023-03-03T04:12:15;95623.72;;;-0.52;100.00
43878;BME280;29815;48.184;11.268;2023-03-03T04:14:45;95618.03;;;-0.49;100.00
43878;BME280;29815;48.184;11.268;2023-03-03T04:17:16;95625.56;;;-0.46;100.00
43878;BME280;29815;48.184;11.268;2023-03-03T04:19:47;95629.03;;;-0.45;100.00
43878;BME280;29815;48.184;11.268;2023-03-03T04:22:17;95626.00;;;-0.42;100.00
43878;BME280;29815;48.184;11.268;2023-03-03T04:24:46;95626.19;;;-0.44;100.00
43878;BME280;29815;48.184;11.268;2023-03-03T04:27:19;95626.38;;;-0.45;100.00
